Aviation Digital Data Service (ADDS)

Output produced by METARs form (1403 UTC 23 January 2019)
found at http://www.aviationweather.gov/metar/data/
 
METAR text: UUDL 231330Z 20003MPS CAVOK M14/M17 Q1019 R23/850347 NOSIG RMK QFE756
Conditions at: UUDL (YAROSLAV , RU) observed 1330 UTC 23 January 2019
Temperature: -14.0°C ( 7°F)
Dewpoint: -17.0°C ( 1°F) [RH = 78%]
Pressure (altimeter): 30.09 inches Hg (1019.0 mb)
Winds: from the SSW (200 degrees) at 7 MPH (6 knots; 3.1 m/s)
Visibility: 6 or more miles (10+ km)
Ceiling: ceiling and visibility are OK
Clouds: unknown
Weather: no significant weather observed at this time

METAR text: UUDL 231300Z 20002MPS CAVOK M14/M17 Q1019 R23/850347 NOSIG RMK QFE756
Conditions at: UUDL (YAROSLAV , RU) observed 1300 UTC 23 January 2019
Temperature: -14.0°C ( 7°F)
Dewpoint: -17.0°C ( 1°F) [RH = 78%]
Pressure (altimeter): 30.09 inches Hg (1019.0 mb)
Winds: from the SSW (200 degrees) at 5 MPH (4 knots; 2.1 m/s)
Visibility: 6 or more miles (10+ km)
Ceiling: ceiling and visibility are OK
Clouds: unknown
Weather: no significant weather observed at this time

METAR text: UUDL 231230Z 20003MPS CAVOK M13/M17 Q1019 R23/850347 NOSIG RMK QFE756
Conditions at: UUDL (YAROSLAV , RU) observed 1230 UTC 23 January 2019
Temperature: -13.0°C ( 9°F)
Dewpoint: -17.0°C ( 1°F) [RH = 72%]
Pressure (altimeter): 30.09 inches Hg (1019.0 mb)
Winds: from the SSW (200 degrees) at 7 MPH (6 knots; 3.1 m/s)
Visibility: 6 or more miles (10+ km)
Ceiling: ceiling and visibility are OK
Clouds: unknown
Weather: no significant weather observed at this time

METAR text: UUDL 231200Z 21003MPS CAVOK M13/M17 Q1019 R23/850347 NOSIG RMK QFE756
Conditions at: UUDL (YAROSLAV , RU) observed 1200 UTC 23 January 2019
Temperature: -13.0°C ( 9°F)
Dewpoint: -17.0°C ( 1°F) [RH = 72%]
Pressure (altimeter): 30.09 inches Hg (1019.0 mb)
Winds: from the SSW (210 degrees) at 7 MPH (6 knots; 3.1 m/s)
Visibility: 6 or more miles (10+ km)
Ceiling: ceiling and visibility are OK
Clouds: unknown
Weather: no significant weather observed at this time

METAR text: UUDL 231130Z 22003MPS CAVOK M13/M17 Q1019 R23/850347 NOSIG RMK QFE756
Conditions at: UUDL (YAROSLAV , RU) observed 1130 UTC 23 January 2019
Temperature: -13.0°C ( 9°F)
Dewpoint: -17.0°C ( 1°F) [RH = 72%]
Pressure (altimeter): 30.09 inches Hg (1019.0 mb)
Winds: from the SW (220 degrees) at 7 MPH (6 knots; 3.1 m/s)
Visibility: 6 or more miles (10+ km)
Ceiling: ceiling and visibility are OK
Clouds: unknown
Weather: no significant weather observed at this time

METAR text: UUDL 231100Z 22003MPS CAVOK M13/M17 Q1019 R23/850347 NOSIG RMK QFE756
Conditions at: UUDL (YAROSLAV , RU) observed 1100 UTC 23 January 2019
Temperature: -13.0°C ( 9°F)
Dewpoint: -17.0°C ( 1°F) [RH = 72%]
Pressure (altimeter): 30.09 inches Hg (1019.0 mb)
Winds: from the SW (220 degrees) at 7 MPH (6 knots; 3.1 m/s)
Visibility: 6 or more miles (10+ km)
Ceiling: ceiling and visibility are OK
Clouds: unknown
Weather: no significant weather observed at this time

METAR text: UUDL 231030Z 22003MPS CAVOK M13/M16 Q1019 R23/850347 NOSIG RMK QFE756
Conditions at: UUDL (YAROSLAV , RU) observed 1030 UTC 23 January 2019
Temperature: -13.0°C ( 9°F)
Dewpoint: -16.0°C ( 3°F) [RH = 78%]
Pressure (altimeter): 30.09 inches Hg (1019.0 mb)
Winds: from the SW (220 degrees) at 7 MPH (6 knots; 3.1 m/s)
Visibility: 6 or more miles (10+ km)
Ceiling: ceiling and visibility are OK
Clouds: unknown
Weather: no significant weather observed at this time

METAR text: UUDL 231000Z 23004MPS CAVOK M14/M17 Q1019 R23/850347 NOSIG RMK QFE756
Conditions at: UUDL (YAROSLAV , RU) observed 1000 UTC 23 January 2019
Temperature: -14.0°C ( 7°F)
Dewpoint: -17.0°C ( 1°F) [RH = 78%]
Pressure (altimeter): 30.09 inches Hg (1019.0 mb)
Winds: from the SW (230 degrees) at 9 MPH (8 knots; 4.1 m/s)
Visibility: 6 or more miles (10+ km)
Ceiling: ceiling and visibility are OK
Clouds: unknown
Weather: no significant weather observed at this time

METAR text: UUDL 230930Z 22004MPS CAVOK M14/M17 Q1019 R23/850347 NOSIG RMK QFE756
Conditions at: UUDL (YAROSLAV , RU) observed 0930 UTC 23 January 2019
Temperature: -14.0°C ( 7°F)
Dewpoint: -17.0°C ( 1°F) [RH = 78%]
Pressure (altimeter): 30.09 inches Hg (1019.0 mb)
Winds: from the SW (220 degrees) at 9 MPH (8 knots; 4.1 m/s)
Visibility: 6 or more miles (10+ km)
Ceiling: ceiling and visibility are OK
Clouds: unknown
Weather: no significant weather observed at this time

METAR text: UUDL 230900Z 23003MPS CAVOK M15/M18 Q1019 R23/850347 NOSIG RMK QFE756
Conditions at: UUDL (YAROSLAV , RU) observed 0900 UTC 23 January 2019
Temperature: -15.0°C ( 5°F)
Dewpoint: -18.0°C (-0°F) [RH = 78%]
Pressure (altimeter): 30.09 inches Hg (1019.0 mb)
Winds: from the SW (230 degrees) at 7 MPH (6 knots; 3.1 m/s)
Visibility: 6 or more miles (10+ km)
Ceiling: ceiling and visibility are OK
Clouds: unknown
Weather: no significant weather observed at this time

METAR text: UUDL 230830Z 21003MPS 9999 FEW020 M15/M18 Q1019 R23/850347 NOSIG RMK QFE756
Conditions at: UUDL (YAROSLAV , RU) observed 0830 UTC 23 January 2019
Temperature: -15.0°C ( 5°F)
Dewpoint: -18.0°C (-0°F) [RH = 78%]
Pressure (altimeter): 30.09 inches Hg (1019.0 mb)
Winds: from the SSW (210 degrees) at 7 MPH (6 knots; 3.1 m/s)
Visibility: 6 or more miles (10+ km)
Ceiling: at least 12,000 feet AGL
Clouds: few clouds at 2000 feet AGL
Weather: no significant weather observed at this time

METAR text: UUDL 230800Z 22004MPS 9999 SCT020 M16/M18 Q1019 R23/850347 NOSIG RMK QFE756
Conditions at: UUDL (YAROSLAV , RU) observed 0800 UTC 23 January 2019
Temperature: -16.0°C ( 3°F)
Dewpoint: -18.0°C (-0°F) [RH = 85%]
Pressure (altimeter): 30.09 inches Hg (1019.0 mb)
Winds: from the SW (220 degrees) at 9 MPH (8 knots; 4.1 m/s)
Visibility: 6 or more miles (10+ km)
Ceiling: at least 12,000 feet AGL
Clouds: scattered clouds at 2000 feet AGL
Weather: no significant weather observed at this time

METAR text: UUDL 230730Z 20003MPS 9999 SCT023 M16/M19 Q1019 R23/850347 NOSIG RMK QFE756
Conditions at: UUDL (YAROSLAV , RU) observed 0730 UTC 23 January 2019
Temperature: -16.0°C ( 3°F)
Dewpoint: -19.0°C (-2°F) [RH = 78%]
Pressure (altimeter): 30.09 inches Hg (1019.0 mb)
Winds: from the SSW (200 degrees) at 7 MPH (6 knots; 3.1 m/s)
Visibility: 6 or more miles (10+ km)
Ceiling: at least 12,000 feet AGL
Clouds: scattered clouds at 2300 feet AGL
Weather: no significant weather observed at this time

METAR text: UUDL 230700Z 21003MPS 9999 FEW003 M16/M19 Q1018 R23/850347 NOSIG RMK QBB090 QFE755
Conditions at: UUDL (YAROSLAV , RU) observed 0700 UTC 23 January 2019
Temperature: -16.0°C ( 3°F)
Dewpoint: -19.0°C (-2°F) [RH = 78%]
Pressure (altimeter): 30.06 inches Hg (1018.0 mb)
Winds: from the SSW (210 degrees) at 7 MPH (6 knots; 3.1 m/s)
Visibility: 6 or more miles (10+ km)
Ceiling: at least 12,000 feet AGL
Clouds: few clouds at 300 feet AGL
Weather: no significant weather observed at this time

METAR text: UUDL 230630Z 21004MPS 9999 SCT003 M16/M19 Q1018 R23/850347 NOSIG RMK QBB090 QFE755
Conditions at: UUDL (YAROSLAV , RU) observed 0630 UTC 23 January 2019
Temperature: -16.0°C ( 3°F)
Dewpoint: -19.0°C (-2°F) [RH = 78%]
Pressure (altimeter): 30.06 inches Hg (1018.0 mb)
Winds: from the SSW (210 degrees) at 9 MPH (8 knots; 4.1 m/s)
Visibility: 6 or more miles (10+ km)
Ceiling: at least 12,000 feet AGL
Clouds: scattered clouds at 300 feet AGL
Weather: no significant weather observed at this time

METAR text: UUDL 230600Z 22004MPS 9999 SCT003 M16/M19 Q1018 R23/850347 NOSIG RMK QBB090 QFE755
Conditions at: UUDL (YAROSLAV , RU) observed 0600 UTC 23 January 2019
Temperature: -16.0°C ( 3°F)
Dewpoint: -19.0°C (-2°F) [RH = 78%]
Pressure (altimeter): 30.06 inches Hg (1018.0 mb)
Winds: from the SW (220 degrees) at 9 MPH (8 knots; 4.1 m/s)
Visibility: 6 or more miles (10+ km)
Ceiling: at least 12,000 feet AGL
Clouds: scattered clouds at 300 feet AGL
Weather: no significant weather observed at this time

METAR text: UUDL 230530Z 22004MPS CAVOK M16/M18 Q1018 R23/491037 NOSIG RMK QFE755
Conditions at: UUDL (YAROSLAV , RU) observed 0530 UTC 23 January 2019
Temperature: -16.0°C ( 3°F)
Dewpoint: -18.0°C (-0°F) [RH = 85%]
Pressure (altimeter): 30.06 inches Hg (1018.0 mb)
Winds: from the SW (220 degrees) at 9 MPH (8 knots; 4.1 m/s)
Visibility: 6 or more miles (10+ km)
Ceiling: ceiling and visibility are OK
Clouds: unknown
Weather: no significant weather observed at this time

METAR text: UUDL 230500Z 22004MPS CAVOK M16/M18 Q1017 R23/491037 NOSIG RMK QFE755
Conditions at: UUDL (YAROSLAV , RU) observed 0500 UTC 23 January 2019
Temperature: -16.0°C ( 3°F)
Dewpoint: -18.0°C (-0°F) [RH = 85%]
Pressure (altimeter): 30.03 inches Hg (1017.0 mb)
Winds: from the SW (220 degrees) at 9 MPH (8 knots; 4.1 m/s)
Visibility: 6 or more miles (10+ km)
Ceiling: ceiling and visibility are OK
Clouds: unknown
Weather: no significant weather observed at this time

METAR text: UUDL 230430Z 21003MPS CAVOK M16/M18 Q1017 R23/491037 NOSIG RMK QFE755
Conditions at: UUDL (YAROSLAV , RU) observed 0430 UTC 23 January 2019
Temperature: -16.0°C ( 3°F)
Dewpoint: -18.0°C (-0°F) [RH = 85%]
Pressure (altimeter): 30.03 inches Hg (1017.0 mb)
Winds: from the SSW (210 degrees) at 7 MPH (6 knots; 3.1 m/s)
Visibility: 6 or more miles (10+ km)
Ceiling: ceiling and visibility are OK
Clouds: unknown
Weather: no significant weather observed at this time

METAR text: UUDL 230400Z 22003MPS CAVOK M16/M18 Q1017 R23/490547 NOSIG RMK QFE754
Conditions at: UUDL (YAROSLAV , RU) observed 0400 UTC 23 January 2019
Temperature: -16.0°C ( 3°F)
Dewpoint: -18.0°C (-0°F) [RH = 85%]
Pressure (altimeter): 30.03 inches Hg (1017.0 mb)
Winds: from the SW (220 degrees) at 7 MPH (6 knots; 3.1 m/s)
Visibility: 6 or more miles (10+ km)
Ceiling: ceiling and visibility are OK
Clouds: unknown
Weather: no significant weather observed at this time

METAR text: UUDL 230330Z 22004MPS CAVOK M15/M18 Q1017 R23/490547 NOSIG RMK QFE754
Conditions at: UUDL (YAROSLAV , RU) observed 0330 UTC 23 January 2019
Temperature: -15.0°C ( 5°F)
Dewpoint: -18.0°C (-0°F) [RH = 78%]
Pressure (altimeter): 30.03 inches Hg (1017.0 mb)
Winds: from the SW (220 degrees) at 9 MPH (8 knots; 4.1 m/s)
Visibility: 6 or more miles (10+ km)
Ceiling: ceiling and visibility are OK
Clouds: unknown
Weather: no significant weather observed at this time

METAR text: UUDL 230300Z 21004MPS CAVOK M15/M17 Q1017 R23/490547 NOSIG RMK QFE754
Conditions at: UUDL (YAROSLAV , RU) observed 0300 UTC 23 January 2019
Temperature: -15.0°C ( 5°F)
Dewpoint: -17.0°C ( 1°F) [RH = 85%]
Pressure (altimeter): 30.03 inches Hg (1017.0 mb)
Winds: from the SSW (210 degrees) at 9 MPH (8 knots; 4.1 m/s)
Visibility: 6 or more miles (10+ km)
Ceiling: ceiling and visibility are OK
Clouds: unknown
Weather: no significant weather observed at this time

METAR text: UUDL 230230Z 21004MPS 8000 -SN OVC042 M15/M17 Q1017 R23/490547 NOSIG RMK QFE754
Conditions at: UUDL (YAROSLAV , RU) observed 0230 UTC 23 January 2019
Temperature: -15.0°C ( 5°F)
Dewpoint: -17.0°C ( 1°F) [RH = 85%]
Pressure (altimeter): 30.03 inches Hg (1017.0 mb)
Winds: from the SSW (210 degrees) at 9 MPH (8 knots; 4.1 m/s)
Visibility: 5 miles ( 8 km)
Ceiling: 4200 feet AGL
Clouds: overcast cloud deck at 4200 feet AGL
Weather: -SN  (light snow)

METAR text: UUDL 230200Z 22004MPS 8000 -SN OVC042 M14/M17 Q1016 R23/490547 NOSIG RMK QFE754
Conditions at: UUDL (YAROSLAV , RU) observed 0200 UTC 23 January 2019
Temperature: -14.0°C ( 7°F)
Dewpoint: -17.0°C ( 1°F) [RH = 78%]
Pressure (altimeter): 30.00 inches Hg (1016.0 mb)
Winds: from the SW (220 degrees) at 9 MPH (8 knots; 4.1 m/s)
Visibility: 5 miles ( 8 km)
Ceiling: 4200 feet AGL
Clouds: overcast cloud deck at 4200 feet AGL
Weather: -SN  (light snow)

METAR text: UUDL 230130Z 21004MPS 8000 -SN OVC042 M14/M17 Q1016 R23/490547 NOSIG RMK QFE754
Conditions at: UUDL (YAROSLAV , RU) observed 0130 UTC 23 January 2019
Temperature: -14.0°C ( 7°F)
Dewpoint: -17.0°C ( 1°F) [RH = 78%]
Pressure (altimeter): 30.00 inches Hg (1016.0 mb)
Winds: from the SSW (210 degrees) at 9 MPH (8 knots; 4.1 m/s)
Visibility: 5 miles ( 8 km)
Ceiling: 4200 feet AGL
Clouds: overcast cloud deck at 4200 feet AGL
Weather: -SN  (light snow)

METAR text: UUDL 230100Z 23004MPS 8000 -SN OVC042 M14/M16 Q1016 R23/490547 NOSIG RMK QFE754
Conditions at: UUDL (YAROSLAV , RU) observed 0100 UTC 23 January 2019
Temperature: -14.0°C ( 7°F)
Dewpoint: -16.0°C ( 3°F) [RH = 85%]
Pressure (altimeter): 30.00 inches Hg (1016.0 mb)
Winds: from the SW (230 degrees) at 9 MPH (8 knots; 4.1 m/s)
Visibility: 5 miles ( 8 km)
Ceiling: 4200 feet AGL
Clouds: overcast cloud deck at 4200 feet AGL
Weather: -SN  (light snow)

METAR text: UUDL 230030Z 23004MPS 8000 -SN OVC042 M14/M16 Q1016 R23/490547 NOSIG RMK QFE754
Conditions at: UUDL (YAROSLAV , RU) observed 0030 UTC 23 January 2019
Temperature: -14.0°C ( 7°F)
Dewpoint: -16.0°C ( 3°F) [RH = 85%]
Pressure (altimeter): 30.00 inches Hg (1016.0 mb)
Winds: from the SW (230 degrees) at 9 MPH (8 knots; 4.1 m/s)
Visibility: 5 miles ( 8 km)
Ceiling: 4200 feet AGL
Clouds: overcast cloud deck at 4200 feet AGL
Weather: -SN  (light snow)

METAR text: UUDL 230000Z 22005MPS 1700 R23/P2000N SN OVC031 M14/M16 Q1016 R23/490547 NOSIG RMK QFE754
Conditions at: UUDL (YAROSLAV , RU) observed 0000 UTC 23 January 2019
Temperature: -14.0°C ( 7°F)
Dewpoint: -16.0°C ( 3°F) [RH = 85%]
Pressure (altimeter): 30.00 inches Hg (1016.0 mb)
Winds: from the SW (220 degrees) at 12 MPH (10 knots; 5.1 m/s)
Visibility: 1.06 miles (1.71 km)
Ceiling: 3100 feet AGL
Clouds: overcast cloud deck at 3100 feet AGL
Weather: SN  (moderate snow)

METAR text: UUDL 222330Z 22004MPS 3100 -SN OVC031 M14/M17 Q1016 R23/490547 NOSIG RMK QFE754
Conditions at: UUDL (YAROSLAV , RU) observed 2330 UTC 22 January 2019
Temperature: -14.0°C ( 7°F)
Dewpoint: -17.0°C ( 1°F) [RH = 78%]
Pressure (altimeter): 30.00 inches Hg (1016.0 mb)
Winds: from the SW (220 degrees) at 9 MPH (8 knots; 4.1 m/s)
Visibility: 1.93 miles (3.11 km)
Ceiling: 3100 feet AGL
Clouds: overcast cloud deck at 3100 feet AGL
Weather: -SN  (light snow)

METAR text: UUDL 222300Z 22004MPS 4100 -SN BKN041 M14/M17 Q1016 R23/420351 NOSIG RMK QFE753
Conditions at: UUDL (YAROSLAV , RU) observed 2300 UTC 22 January 2019
Temperature: -14.0°C ( 7°F)
Dewpoint: -17.0°C ( 1°F) [RH = 78%]
Pressure (altimeter): 30.00 inches Hg (1016.0 mb)
Winds: from the SW (220 degrees) at 9 MPH (8 knots; 4.1 m/s)
Visibility: 2.55 miles (4.10 km)
Ceiling: 4100 feet AGL
Clouds: broken clouds at 4100 feet AGL
Weather: -SN  (light snow)

METAR text: UUDL 222230Z 21003MPS 3200 -SN BKN041 M15/M17 Q1016 R23/420351 NOSIG RMK QFE753
Conditions at: UUDL (YAROSLAV , RU) observed 2230 UTC 22 January 2019
Temperature: -15.0°C ( 5°F)
Dewpoint: -17.0°C ( 1°F) [RH = 85%]
Pressure (altimeter): 30.00 inches Hg (1016.0 mb)
Winds: from the SSW (210 degrees) at 7 MPH (6 knots; 3.1 m/s)
Visibility: 1.99 miles (3.20 km)
Ceiling: 4100 feet AGL
Clouds: broken clouds at 4100 feet AGL
Weather: -SN  (light snow)

METAR text: UUDL 222200Z 20003MPS 7000 -SN NSC M15/M18 Q1016 R23/420351 NOSIG RMK QFE754
Conditions at: UUDL (YAROSLAV , RU) observed 2200 UTC 22 January 2019
Temperature: -15.0°C ( 5°F)
Dewpoint: -18.0°C (-0°F) [RH = 78%]
Pressure (altimeter): 30.00 inches Hg (1016.0 mb)
Winds: from the SSW (200 degrees) at 7 MPH (6 knots; 3.1 m/s)
Visibility: 4 miles ( 7 km)
Ceiling: at least 12,000 feet AGL
Clouds: sky clear below 12,000 feet AGL
Weather: -SN  (light snow)

METAR text: UUDL 222130Z 21003MPS 7000 -SN NSC M16/M18 Q1016 R23/420351 NOSIG RMK QFE754
Conditions at: UUDL (YAROSLAV , RU) observed 2130 UTC 22 January 2019
Temperature: -16.0°C ( 3°F)
Dewpoint: -18.0°C (-0°F) [RH = 85%]
Pressure (altimeter): 30.00 inches Hg (1016.0 mb)
Winds: from the SSW (210 degrees) at 7 MPH (6 knots; 3.1 m/s)
Visibility: 4 miles ( 7 km)
Ceiling: at least 12,000 feet AGL
Clouds: sky clear below 12,000 feet AGL
Weather: -SN  (light snow)

METAR text: UUDL 222100Z 20003MPS 7000 -SN NSC M16/M19 Q1016 R23/420351 NOSIG RMK QFE754
Conditions at: UUDL (YAROSLAV , RU) observed 2100 UTC 22 January 2019
Temperature: -16.0°C ( 3°F)
Dewpoint: -19.0°C (-2°F) [RH = 78%]
Pressure (altimeter): 30.00 inches Hg (1016.0 mb)
Winds: from the SSW (200 degrees) at 7 MPH (6 knots; 3.1 m/s)
Visibility: 4 miles ( 7 km)
Ceiling: at least 12,000 feet AGL
Clouds: sky clear below 12,000 feet AGL
Weather: -SN  (light snow)

METAR text: UUDL 222030Z 21003MPS 7000 -SN NSC M17/M19 Q1016 R23/420351 NOSIG RMK QFE754
Conditions at: UUDL (YAROSLAV , RU) observed 2030 UTC 22 January 2019
Temperature: -17.0°C ( 1°F)
Dewpoint: -19.0°C (-2°F) [RH = 84%]
Pressure (altimeter): 30.00 inches Hg (1016.0 mb)
Winds: from the SSW (210 degrees) at 7 MPH (6 knots; 3.1 m/s)
Visibility: 4 miles ( 7 km)
Ceiling: at least 12,000 feet AGL
Clouds: sky clear below 12,000 feet AGL
Weather: -SN  (light snow)

METAR text: UUDL 222000Z 20003MPS 5000 -SN BKN046 M17/M19 Q1016 R23/420351 NOSIG RMK QFE753
Conditions at: UUDL (YAROSLAV , RU) observed 2000 UTC 22 January 2019
Temperature: -17.0°C ( 1°F)
Dewpoint: -19.0°C (-2°F) [RH = 84%]
Pressure (altimeter): 30.00 inches Hg (1016.0 mb)
Winds: from the SSW (200 degrees) at 7 MPH (6 knots; 3.1 m/s)
Visibility: 3 miles ( 5 km)
Ceiling: 4600 feet AGL
Clouds: broken clouds at 4600 feet AGL
Weather: -SN  (light snow)

METAR text: UUDL 221930Z 20003MPS 6000 -SN BKN043 M17/M20 Q1016 R23/420351 NOSIG RMK QFE753
Conditions at: UUDL (YAROSLAV , RU) observed 1930 UTC 22 January 2019
Temperature: -17.0°C ( 1°F)
Dewpoint: -20.0°C (-4°F) [RH = 77%]
Pressure (altimeter): 30.00 inches Hg (1016.0 mb)
Winds: from the SSW (200 degrees) at 7 MPH (6 knots; 3.1 m/s)
Visibility: 4 miles ( 6 km)
Ceiling: 4300 feet AGL
Clouds: broken clouds at 4300 feet AGL
Weather: -SN  (light snow)

METAR text: UUDL 221900Z 21003MPS 7000 -SN SCT040 M17/M20 Q1015 R23/420351 NOSIG RMK QFE753
Conditions at: UUDL (YAROSLAV , RU) observed 1900 UTC 22 January 2019
Temperature: -17.0°C ( 1°F)
Dewpoint: -20.0°C (-4°F) [RH = 77%]
Pressure (altimeter): 29.97 inches Hg (1015.0 mb)
Winds: from the SSW (210 degrees) at 7 MPH (6 knots; 3.1 m/s)
Visibility: 4 miles ( 7 km)
Ceiling: at least 12,000 feet AGL
Clouds: scattered clouds at 4000 feet AGL
Weather: -SN  (light snow)

METAR text: UUDL 221830Z 22003MPS 9999 SCT039 M17/M19 Q1015 R23/420351 NOSIG RMK QFE753
Conditions at: UUDL (YAROSLAV , RU) observed 1830 UTC 22 January 2019
Temperature: -17.0°C ( 1°F)
Dewpoint: -19.0°C (-2°F) [RH = 84%]
Pressure (altimeter): 29.97 inches Hg (1015.0 mb)
Winds: from the SW (220 degrees) at 7 MPH (6 knots; 3.1 m/s)
Visibility: 6 or more miles (10+ km)
Ceiling: at least 12,000 feet AGL
Clouds: scattered clouds at 3900 feet AGL
Weather: no significant weather observed at this time

METAR text: UUDL 221800Z 22003MPS CAVOK M17/M20 Q1015 R23/420351 NOSIG RMK QFE753
Conditions at: UUDL (YAROSLAV , RU) observed 1800 UTC 22 January 2019
Temperature: -17.0°C ( 1°F)
Dewpoint: -20.0°C (-4°F) [RH = 77%]
Pressure (altimeter): 29.97 inches Hg (1015.0 mb)
Winds: from the SW (220 degrees) at 7 MPH (6 knots; 3.1 m/s)
Visibility: 6 or more miles (10+ km)
Ceiling: ceiling and visibility are OK
Clouds: unknown
Weather: no significant weather observed at this time

METAR text: UUDL 221730Z 23003MPS CAVOK M18/M20 Q1015 R23/420351 NOSIG RMK QFE753
Conditions at: UUDL (YAROSLAV , RU) observed 1730 UTC 22 January 2019
Temperature: -18.0°C (-0°F)
Dewpoint: -20.0°C (-4°F) [RH = 84%]
Pressure (altimeter): 29.97 inches Hg (1015.0 mb)
Winds: from the SW (230 degrees) at 7 MPH (6 knots; 3.1 m/s)
Visibility: 6 or more miles (10+ km)
Ceiling: ceiling and visibility are OK
Clouds: unknown
Weather: no significant weather observed at this time

METAR text: UUDL 221700Z 23004MPS CAVOK M18/M20 Q1015 R23/420351 NOSIG RMK QFE753
Conditions at: UUDL (YAROSLAV , RU) observed 1700 UTC 22 January 2019
Temperature: -18.0°C (-0°F)
Dewpoint: -20.0°C (-4°F) [RH = 84%]
Pressure (altimeter): 29.97 inches Hg (1015.0 mb)
Winds: from the SW (230 degrees) at 9 MPH (8 knots; 4.1 m/s)
Visibility: 6 or more miles (10+ km)
Ceiling: ceiling and visibility are OK
Clouds: unknown
Weather: no significant weather observed at this time

METAR text: UUDL 221630Z 23004MPS 9999 SCT009 M18/M20 Q1015 R23/420351 NOSIG RMK QFE753
Conditions at: UUDL (YAROSLAV , RU) observed 1630 UTC 22 January 2019
Temperature: -18.0°C (-0°F)
Dewpoint: -20.0°C (-4°F) [RH = 84%]
Pressure (altimeter): 29.97 inches Hg (1015.0 mb)
Winds: from the SW (230 degrees) at 9 MPH (8 knots; 4.1 m/s)
Visibility: 6 or more miles (10+ km)
Ceiling: at least 12,000 feet AGL
Clouds: scattered clouds at 900 feet AGL
Weather: no significant weather observed at this time

METAR text: UUDL 221600Z 23004MPS 9999 BKN011 M17/M20 Q1015 R23/420351 NOSIG RMK QFE753
Conditions at: UUDL (YAROSLAV , RU) observed 1600 UTC 22 January 2019
Temperature: -17.0°C ( 1°F)
Dewpoint: -20.0°C (-4°F) [RH = 77%]
Pressure (altimeter): 29.97 inches Hg (1015.0 mb)
Winds: from the SW (230 degrees) at 9 MPH (8 knots; 4.1 m/s)
Visibility: 6 or more miles (10+ km)
Ceiling: 1100 feet AGL
Clouds: broken clouds at 1100 feet AGL
Weather: no significant weather observed at this time

METAR text: UUDL 221530Z 23004MPS CAVOK M17/M20 Q1015 R23/420351 NOSIG RMK QFE753
Conditions at: UUDL (YAROSLAV , RU) observed 1530 UTC 22 January 2019
Temperature: -17.0°C ( 1°F)
Dewpoint: -20.0°C (-4°F) [RH = 77%]
Pressure (altimeter): 29.97 inches Hg (1015.0 mb)
Winds: from the SW (230 degrees) at 9 MPH (8 knots; 4.1 m/s)
Visibility: 6 or more miles (10+ km)
Ceiling: ceiling and visibility are OK
Clouds: unknown
Weather: no significant weather observed at this time

METAR text: UUDL 221500Z 24005MPS CAVOK M18/M20 Q1015 R23/420351 NOSIG RMK QFE753
Conditions at: UUDL (YAROSLAV , RU) observed 1500 UTC 22 January 2019
Temperature: -18.0°C (-0°F)
Dewpoint: -20.0°C (-4°F) [RH = 84%]
Pressure (altimeter): 29.97 inches Hg (1015.0 mb)
Winds: from the WSW (240 degrees) at 12 MPH (10 knots; 5.1 m/s)
Visibility: 6 or more miles (10+ km)
Ceiling: ceiling and visibility are OK
Clouds: unknown
Weather: no significant weather observed at this time

METAR text: UUDL 221430Z 24005MPS CAVOK M18/M21 Q1015 R23/420351 NOSIG RMK QFE753
Conditions at: UUDL (YAROSLAV , RU) observed 1430 UTC 22 January 2019
Temperature: -18.0°C (-0°F)
Dewpoint: -21.0°C (-6°F) [RH = 77%]
Pressure (altimeter): 29.97 inches Hg (1015.0 mb)
Winds: from the WSW (240 degrees) at 12 MPH (10 knots; 5.1 m/s)
Visibility: 6 or more miles (10+ km)
Ceiling: ceiling and visibility are OK
Clouds: unknown
Weather: no significant weather observed at this time

METAR text: UUDL 221400Z 24005MPS CAVOK M18/M21 Q1015 R23/420351 NOSIG RMK QFE753
Conditions at: UUDL (YAROSLAV , RU) observed 1400 UTC 22 January 2019
Temperature: -18.0°C (-0°F)
Dewpoint: -21.0°C (-6°F) [RH = 77%]
Pressure (altimeter): 29.97 inches Hg (1015.0 mb)
Winds: from the WSW (240 degrees) at 12 MPH (10 knots; 5.1 m/s)
Visibility: 6 or more miles (10+ km)
Ceiling: ceiling and visibility are OK
Clouds: unknown
Weather: no significant weather observed at this time

METAR text: UUDL 221330Z 23004MPS CAVOK M17/M20 Q1014 R23/420351 NOSIG RMK QFE752
Conditions at: UUDL (YAROSLAV , RU) observed 1330 UTC 22 January 2019
Temperature: -17.0°C ( 1°F)
Dewpoint: -20.0°C (-4°F) [RH = 77%]
Pressure (altimeter): 29.94 inches Hg (1014.0 mb)
Winds: from the SW (230 degrees) at 9 MPH (8 knots; 4.1 m/s)
Visibility: 6 or more miles (10+ km)
Ceiling: ceiling and visibility are OK
Clouds: unknown
Weather: no significant weather observed at this time

METAR text: UUDL 221300Z 23004MPS 9999 SCT030 M16/M19 Q1014 R23/491536 NOSIG RMK QFE752
Conditions at: UUDL (YAROSLAV , RU) observed 1300 UTC 22 January 2019
Temperature: -16.0°C ( 3°F)
Dewpoint: -19.0°C (-2°F) [RH = 78%]
Pressure (altimeter): 29.94 inches Hg (1014.0 mb)
Winds: from the SW (230 degrees) at 9 MPH (8 knots; 4.1 m/s)
Visibility: 6 or more miles (10+ km)
Ceiling: at least 12,000 feet AGL
Clouds: scattered clouds at 3000 feet AGL
Weather: no significant weather observed at this time

METAR text: UUDL 221230Z 25006MPS 9999 SCT029 M15/M19 Q1014 R23/491536 NOSIG RMK QFE752
Conditions at: UUDL (YAROSLAV , RU) observed 1230 UTC 22 January 2019
Temperature: -15.0°C ( 5°F)
Dewpoint: -19.0°C (-2°F) [RH = 71%]
Pressure (altimeter): 29.94 inches Hg (1014.0 mb)
Winds: from the WSW (250 degrees) at 14 MPH (12 knots; 6.2 m/s)
Visibility: 6 or more miles (10+ km)
Ceiling: at least 12,000 feet AGL
Clouds: scattered clouds at 2900 feet AGL
Weather: no significant weather observed at this time

METAR text: UUDL 221200Z 23004MPS 9999 SCT027 M16/M19 Q1014 R23/491536 NOSIG RMK QFE752
Conditions at: UUDL (YAROSLAV , RU) observed 1200 UTC 22 January 2019
Temperature: -16.0°C ( 3°F)
Dewpoint: -19.0°C (-2°F) [RH = 78%]
Pressure (altimeter): 29.94 inches Hg (1014.0 mb)
Winds: from the SW (230 degrees) at 9 MPH (8 knots; 4.1 m/s)
Visibility: 6 or more miles (10+ km)
Ceiling: at least 12,000 feet AGL
Clouds: scattered clouds at 2700 feet AGL
Weather: no significant weather observed at this time

METAR text: UUDL 221130Z 25005MPS 9999 BKN046 M15/M19 Q1013 R23/491536 NOSIG RMK QFE752
Conditions at: UUDL (YAROSLAV , RU) observed 1130 UTC 22 January 2019
Temperature: -15.0°C ( 5°F)
Dewpoint: -19.0°C (-2°F) [RH = 71%]
Pressure (altimeter): 29.91 inches Hg (1013.0 mb)
Winds: from the WSW (250 degrees) at 12 MPH (10 knots; 5.1 m/s)
Visibility: 6 or more miles (10+ km)
Ceiling: 4600 feet AGL
Clouds: broken clouds at 4600 feet AGL
Weather: no significant weather observed at this time

METAR text: UUDL 221100Z 24004MPS 9999 -SN BKN046 M16/M20 Q1013 R23/491536 NOSIG RMK QFE752
Conditions at: UUDL (YAROSLAV , RU) observed 1100 UTC 22 January 2019
Temperature: -16.0°C ( 3°F)
Dewpoint: -20.0°C (-4°F) [RH = 71%]
Pressure (altimeter): 29.91 inches Hg (1013.0 mb)
Winds: from the WSW (240 degrees) at 9 MPH (8 knots; 4.1 m/s)
Visibility: 6 or more miles (10+ km)
Ceiling: 4600 feet AGL
Clouds: broken clouds at 4600 feet AGL
Weather: -SN  (light snow)

METAR text: UUDL 221030Z 24005MPS 9000 -SN NSC M17/M20 Q1013 R23/491536 NOSIG RMK QFE752
Conditions at: UUDL (YAROSLAV , RU) observed 1030 UTC 22 January 2019
Temperature: -17.0°C ( 1°F)
Dewpoint: -20.0°C (-4°F) [RH = 77%]
Pressure (altimeter): 29.91 inches Hg (1013.0 mb)
Winds: from the WSW (240 degrees) at 12 MPH (10 knots; 5.1 m/s)
Visibility: 6 miles ( 9 km)
Ceiling: at least 12,000 feet AGL
Clouds: sky clear below 12,000 feet AGL
Weather: -SN  (light snow)

METAR text: UUDL 221000Z 24005MPS 9999 SCT042 M18/M21 Q1013 R23/491536 NOSIG RMK QFE752
Conditions at: UUDL (YAROSLAV , RU) observed 1000 UTC 22 January 2019
Temperature: -18.0°C (-0°F)
Dewpoint: -21.0°C (-6°F) [RH = 77%]
Pressure (altimeter): 29.91 inches Hg (1013.0 mb)
Winds: from the WSW (240 degrees) at 12 MPH (10 knots; 5.1 m/s)
Visibility: 6 or more miles (10+ km)
Ceiling: at least 12,000 feet AGL
Clouds: scattered clouds at 4200 feet AGL
Weather: no significant weather observed at this time

METAR text: UUDL 220930Z 25005MPS CAVOK M18/M21 Q1013 R23/491536 NOSIG RMK QFE752
Conditions at: UUDL (YAROSLAV , RU) observed 0930 UTC 22 January 2019
Temperature: -18.0°C (-0°F)
Dewpoint: -21.0°C (-6°F) [RH = 77%]
Pressure (altimeter): 29.91 inches Hg (1013.0 mb)
Winds: from the WSW (250 degrees) at 12 MPH (10 knots; 5.1 m/s)
Visibility: 6 or more miles (10+ km)
Ceiling: ceiling and visibility are OK
Clouds: unknown
Weather: no significant weather observed at this time

METAR text: UUDL 220900Z 24005MPS CAVOK M19/M21 Q1013 R23/491536 NOSIG RMK QFE752
Conditions at: UUDL (YAROSLAV , RU) observed 0900 UTC 22 January 2019
Temperature: -19.0°C (-2°F)
Dewpoint: -21.0°C (-6°F) [RH = 84%]
Pressure (altimeter): 29.91 inches Hg (1013.0 mb)
Winds: from the WSW (240 degrees) at 12 MPH (10 knots; 5.1 m/s)
Visibility: 6 or more miles (10+ km)
Ceiling: ceiling and visibility are OK
Clouds: unknown
Weather: no significant weather observed at this time

METAR text: UUDL 220830Z 25005MPS CAVOK M19/M21 Q1013 R23/491536 NOSIG RMK QFE751
Conditions at: UUDL (YAROSLAV , RU) observed 0830 UTC 22 January 2019
Temperature: -19.0°C (-2°F)
Dewpoint: -21.0°C (-6°F) [RH = 84%]
Pressure (altimeter): 29.91 inches Hg (1013.0 mb)
Winds: from the WSW (250 degrees) at 12 MPH (10 knots; 5.1 m/s)
Visibility: 6 or more miles (10+ km)
Ceiling: ceiling and visibility are OK
Clouds: unknown
Weather: no significant weather observed at this time

METAR text: UUDL 220800Z 26003MPS CAVOK M19/M22 Q1013 R23/491536 NOSIG RMK QFE751
Conditions at: UUDL (YAROSLAV , RU) observed 0800 UTC 22 January 2019
Temperature: -19.0°C (-2°F)
Dewpoint: -22.0°C (-8°F) [RH = 77%]
Pressure (altimeter): 29.91 inches Hg (1013.0 mb)
Winds: from the W (260 degrees) at 7 MPH (6 knots; 3.1 m/s)
Visibility: 6 or more miles (10+ km)
Ceiling: ceiling and visibility are OK
Clouds: unknown
Weather: no significant weather observed at this time

METAR text: UUDL 220730Z 26003MPS CAVOK M19/M22 Q1012 R23/491536 NOSIG RMK QFE751
Conditions at: UUDL (YAROSLAV , RU) observed 0730 UTC 22 January 2019
Temperature: -19.0°C (-2°F)
Dewpoint: -22.0°C (-8°F) [RH = 77%]
Pressure (altimeter): 29.88 inches Hg (1012.0 mb)
Winds: from the W (260 degrees) at 7 MPH (6 knots; 3.1 m/s)
Visibility: 6 or more miles (10+ km)
Ceiling: ceiling and visibility are OK
Clouds: unknown
Weather: no significant weather observed at this time

METAR text: UUDL 220700Z 25003MPS CAVOK M20/M23 Q1012 R23/491536 NOSIG RMK QFE751
Conditions at: UUDL (YAROSLAV , RU) observed 0700 UTC 22 January 2019
Temperature: -20.0°C (-4°F)
Dewpoint: -23.0°C (-9°F) [RH = 77%]
Pressure (altimeter): 29.88 inches Hg (1012.0 mb)
Winds: from the WSW (250 degrees) at 7 MPH (6 knots; 3.1 m/s)
Visibility: 6 or more miles (10+ km)
Ceiling: ceiling and visibility are OK
Clouds: unknown
Weather: no significant weather observed at this time

METAR text: UUDL 220630Z 26004MPS CAVOK M20/M22 Q1012 R23/491536 NOSIG RMK QFE751
Conditions at: UUDL (YAROSLAV , RU) observed 0630 UTC 22 January 2019
Temperature: -20.0°C (-4°F)
Dewpoint: -22.0°C (-8°F) [RH = 84%]
Pressure (altimeter): 29.88 inches Hg (1012.0 mb)
Winds: from the W (260 degrees) at 9 MPH (8 knots; 4.1 m/s)
Visibility: 6 or more miles (10+ km)
Ceiling: ceiling and visibility are OK
Clouds: unknown
Weather: no significant weather observed at this time

METAR text: UUDL 220600Z 25004MPS 9999 SCT009 M20/M22 Q1012 R23/491536 NOSIG RMK QFE750
Conditions at: UUDL (YAROSLAV , RU) observed 0600 UTC 22 January 2019
Temperature: -20.0°C (-4°F)
Dewpoint: -22.0°C (-8°F) [RH = 84%]
Pressure (altimeter): 29.88 inches Hg (1012.0 mb)
Winds: from the WSW (250 degrees) at 9 MPH (8 knots; 4.1 m/s)
Visibility: 6 or more miles (10+ km)
Ceiling: at least 12,000 feet AGL
Clouds: scattered clouds at 900 feet AGL
Weather: no significant weather observed at this time

METAR text: UUDL 220530Z 25004MPS CAVOK M20/M22 Q1011 R23/491536 NOSIG RMK QFE750
Conditions at: UUDL (YAROSLAV , RU) observed 0530 UTC 22 January 2019
Temperature: -20.0°C (-4°F)
Dewpoint: -22.0°C (-8°F) [RH = 84%]
Pressure (altimeter): 29.85 inches Hg (1011.0 mb)
Winds: from the WSW (250 degrees) at 9 MPH (8 knots; 4.1 m/s)
Visibility: 6 or more miles (10+ km)
Ceiling: ceiling and visibility are OK
Clouds: unknown
Weather: no significant weather observed at this time

METAR text: UUDL 220500Z 24004MPS CAVOK M19/M21 Q1011 R23/491536 NOSIG RMK QFE750
Conditions at: UUDL (YAROSLAV , RU) observed 0500 UTC 22 January 2019
Temperature: -19.0°C (-2°F)
Dewpoint: -21.0°C (-6°F) [RH = 84%]
Pressure (altimeter): 29.85 inches Hg (1011.0 mb)
Winds: from the WSW (240 degrees) at 9 MPH (8 knots; 4.1 m/s)
Visibility: 6 or more miles (10+ km)
Ceiling: ceiling and visibility are OK
Clouds: unknown
Weather: no significant weather observed at this time

METAR text: UUDL 220430Z 23003MPS CAVOK M18/M20 Q1011 R23/491536 NOSIG RMK QFE750
Conditions at: UUDL (YAROSLAV , RU) observed 0430 UTC 22 January 2019
Temperature: -18.0°C (-0°F)
Dewpoint: -20.0°C (-4°F) [RH = 84%]
Pressure (altimeter): 29.85 inches Hg (1011.0 mb)
Winds: from the SW (230 degrees) at 7 MPH (6 knots; 3.1 m/s)
Visibility: 6 or more miles (10+ km)
Ceiling: ceiling and visibility are OK
Clouds: unknown
Weather: no significant weather observed at this time

METAR text: UUDL 220400Z 23003MPS CAVOK M18/M20 Q1010 R23/450242 NOSIG RMK QFE749
Conditions at: UUDL (YAROSLAV , RU) observed 0400 UTC 22 January 2019
Temperature: -18.0°C (-0°F)
Dewpoint: -20.0°C (-4°F) [RH = 84%]
Pressure (altimeter): 29.82 inches Hg (1010.0 mb)
Winds: from the SW (230 degrees) at 7 MPH (6 knots; 3.1 m/s)
Visibility: 6 or more miles (10+ km)
Ceiling: ceiling and visibility are OK
Clouds: unknown
Weather: no significant weather observed at this time

METAR text: UUDL 220330Z 23003MPS CAVOK M17/M19 Q1010 R23/450242 NOSIG RMK QFE749
Conditions at: UUDL (YAROSLAV , RU) observed 0330 UTC 22 January 2019
Temperature: -17.0°C ( 1°F)
Dewpoint: -19.0°C (-2°F) [RH = 84%]
Pressure (altimeter): 29.82 inches Hg (1010.0 mb)
Winds: from the SW (230 degrees) at 7 MPH (6 knots; 3.1 m/s)
Visibility: 6 or more miles (10+ km)
Ceiling: ceiling and visibility are OK
Clouds: unknown
Weather: no significant weather observed at this time

METAR text: UUDL 220300Z 25002MPS CAVOK M18/M20 Q1010 R23/450242 NOSIG RMK QFE749
Conditions at: UUDL (YAROSLAV , RU) observed 0300 UTC 22 January 2019
Temperature: -18.0°C (-0°F)
Dewpoint: -20.0°C (-4°F) [RH = 84%]
Pressure (altimeter): 29.82 inches Hg (1010.0 mb)
Winds: from the WSW (250 degrees) at 5 MPH (4 knots; 2.1 m/s)
Visibility: 6 or more miles (10+ km)
Ceiling: ceiling and visibility are OK
Clouds: unknown
Weather: no significant weather observed at this time

METAR text: UUDL 220230Z 27003MPS 9999 SCT048 M17/M19 Q1010 R23/450242 NOSIG RMK QFE749
Conditions at: UUDL (YAROSLAV , RU) observed 0230 UTC 22 January 2019
Temperature: -17.0°C ( 1°F)
Dewpoint: -19.0°C (-2°F) [RH = 84%]
Pressure (altimeter): 29.82 inches Hg (1010.0 mb)
Winds: from the W (270 degrees) at 7 MPH (6 knots; 3.1 m/s)
Visibility: 6 or more miles (10+ km)
Ceiling: at least 12,000 feet AGL
Clouds: scattered clouds at 4800 feet AGL
Weather: no significant weather observed at this time

Forecast for: UUDL (YAROSLAV , RU)
Text: TAF UUDL 231056Z 2312/2412 20003MPS 9999 SCT040
Forecast period: 1200 UTC 23 January 2019 to 1200 UTC 24 January 2019
Forecast type: FROM: standard forecast or significant change
Winds: from the SSW (200 degrees) at 7 MPH (6 knots; 3.1 m/s)
Visibility: 6 or more miles 10+ km)
Ceiling: at least 12,000 feet AGL
Clouds: scattered clouds at 4000 feet AGL
Weather: no significant weather forecast for this period